createdAt,value
2023-04-30T00:02:00.358Z,15.10
2023-04-30T00:04:28.525Z,14.50
2023-04-30T00:06:56.598Z,14.60
2023-04-30T00:09:24.573Z,14.13
2023-04-30T00:11:52.316Z,15.38
2023-04-30T00:14:20.338Z,15.48
2023-04-30T00:16:48.240Z,15.88
2023-04-30T00:19:16.289Z,16.17
2023-04-30T00:21:44.002Z,14.65
2023-04-30T00:24:12.021Z,14.95
2023-04-30T00:26:39.769Z,15.82
2023-04-30T00:29:07.874Z,16.48
2023-04-30T00:31:35.624Z,15.45
2023-04-30T00:34:03.669Z,15.10
2023-04-30T00:36:31.965Z,16.05
2023-04-30T00:39:00.108Z,15.23
2023-04-30T00:41:29.336Z,16.00
2023-04-30T00:43:57.385Z,16.70
2023-04-30T00:46:25.134Z,15.38
2023-04-30T00:48:53.287Z,16.63
2023-04-30T00:51:21.073Z,16.17
2023-04-30T00:53:49.575Z,14.95
2023-04-30T00:56:17.727Z,15.48
2023-04-30T00:58:49.938Z,16.23
2023-04-30T01:01:20.373Z,15.90
2023-04-30T01:03:50.801Z,16.17
2023-04-30T01:06:18.705Z,15.80
2023-04-30T01:08:50.530Z,16.48
2023-04-30T01:11:56.622Z,17.58
2023-04-30T01:14:40.916Z,16.85
2023-04-30T01:17:20.334Z,17.00
2023-04-30T01:22:26.265Z,16.98
2023-04-30T01:25:35.006Z,15.80
2023-04-30T01:28:21.263Z,16.42
2023-04-30T01:30:50.700Z,16.27
2023-04-30T01:33:18.475Z,16.40
2023-04-30T01:36:04.637Z,15.65
2023-04-30T01:38:58.172Z,16.45
2023-04-30T01:41:51.454Z,16.50
2023-04-30T01:44:52.208Z,16.52
2023-04-30T01:47:57.510Z,16.73
2023-04-30T01:50:37.576Z,16.75
2023-04-30T01:53:12.081Z,16.95
2023-04-30T01:58:23.707Z,15.90
2023-04-30T02:00:52.195Z,17.17
2023-04-30T02:03:20.512Z,17.15
2023-04-30T02:05:48.976Z,19.67
2023-04-30T02:08:17.091Z,20.15
2023-04-30T02:10:45.017Z,19.63
2023-04-30T02:13:13.138Z,17.70
2023-04-30T02:15:41.147Z,19.10
2023-04-30T02:18:09.457Z,19.38
2023-04-30T02:20:37.265Z,18.67
2023-04-30T02:23:05.452Z,18.17
2023-04-30T02:25:37.993Z,19.38
2023-04-30T02:28:06.192Z,19.38
2023-04-30T02:30:33.907Z,20.35
2023-04-30T02:33:03.463Z,19.88
2023-04-30T02:35:31.369Z,20.10
2023-04-30T02:37:59.363Z,20.45
2023-04-30T02:40:27.162Z,20.85
2023-04-30T02:42:56.865Z,20.75
2023-04-30T02:45:24.724Z,19.55
2023-04-30T02:47:52.972Z,20.77
2023-04-30T02:50:20.901Z,19.85
2023-04-30T02:52:48.930Z,20.20
2023-04-30T02:55:17.377Z,20.90
2023-04-30T02:57:45.538Z,20.02
2023-04-30T03:00:14.252Z,19.90
2023-04-30T03:02:42.325Z,22.33
2023-04-30T03:05:10.995Z,21.42
2023-04-30T03:07:39.300Z,20.10
2023-04-30T03:10:08.017Z,19.73
2023-04-30T03:12:36.147Z,20.02
2023-04-30T03:15:04.240Z,20.45
2023-04-30T03:17:32.329Z,21.10
2023-04-30T03:20:00.202Z,20.65
2023-04-30T03:22:28.306Z,21.13
2023-04-30T03:24:56.047Z,19.05
2023-04-30T03:27:24.084Z,20.33
2023-04-30T03:29:52.018Z,19.45
2023-04-30T03:32:20.132Z,20.30
2023-04-30T03:34:47.915Z,20.70
2023-04-30T03:37:16.001Z,20.83
2023-04-30T03:39:43.804Z,20.42
2023-04-30T03:42:11.845Z,19.77
2023-04-30T03:44:39.603Z,19.65
2023-04-30T03:47:08.353Z,19.92
2023-04-30T03:49:36.056Z,20.80
2023-04-30T03:52:05.594Z,19.92
2023-04-30T03:54:34.080Z,20.08
2023-04-30T03:57:04.671Z,21.27
2023-04-30T03:59:32.750Z,20.25
2023-04-30T04:02:01.903Z,20.25
2023-04-30T04:04:30.880Z,19.58
2023-04-30T04:06:59.938Z,19.42
2023-04-30T04:09:27.713Z,20.80
2023-04-30T04:11:56.201Z,19.85
2023-04-30T04:14:24.102Z,19.55
2023-04-30T04:16:52.117Z,21.38
2023-04-30T04:19:19.967Z,20.23
2023-04-30T04:21:48.563Z,19.73
2023-04-30T04:24:17.069Z,20.98
2023-04-30T04:26:46.705Z,21.08
2023-04-30T04:29:15.814Z,21.52
2023-04-30T04:31:44.746Z,21.27
2023-04-30T04:34:15.087Z,20.88
2023-04-30T04:36:43.531Z,20.83
2023-04-30T04:39:11.973Z,20.80
2023-04-30T04:41:40.028Z,20.25
2023-04-30T04:44:08.918Z,20.23
2023-04-30T04:46:42.325Z,19.67
2023-04-30T04:49:13.252Z,21.13
2023-04-30T04:51:41.389Z,21.45
2023-04-30T04:54:09.131Z,21.17
2023-04-30T04:56:37.139Z,23.20
2023-04-30T04:59:08.232Z,22.35
2023-04-30T05:01:36.625Z,21.00
2023-04-30T05:04:04.749Z,21.92
2023-04-30T05:06:33.115Z,20.85
2023-04-30T05:09:01.040Z,21.08
2023-04-30T05:11:29.642Z,20.60
2023-04-30T05:13:58.310Z,20.17
2023-04-30T05:16:28.682Z,21.33
2023-04-30T05:18:56.510Z,20.25
2023-04-30T05:21:26.171Z,19.73
2023-04-30T05:23:56.389Z,19.75
2023-04-30T05:26:24.512Z,18.33
2023-04-30T05:28:52.662Z,18.98
2023-04-30T05:31:21.185Z,17.90
2023-04-30T05:33:49.034Z,19.23
2023-04-30T05:36:19.427Z,20.98
2023-04-30T05:38:47.166Z,20.83
2023-04-30T05:41:15.186Z,17.83
2023-04-30T05:43:42.895Z,17.65
2023-04-30T05:46:13.500Z,18.65
2023-04-30T05:48:41.829Z,17.65
2023-04-30T05:51:12.209Z,17.42
2023-04-30T05:53:40.059Z,18.42
2023-04-30T05:56:08.913Z,18.10
2023-04-30T05:58:36.641Z,17.35
2023-04-30T06:01:05.380Z,18.35
2023-04-30T06:03:33.367Z,17.52
2023-04-30T06:06:02.055Z,17.55
2023-04-30T06:08:30.304Z,18.45
2023-04-30T06:10:58.535Z,16.55
2023-04-30T06:13:26.418Z,16.40
2023-04-30T06:15:56.891Z,18.30
2023-04-30T06:18:24.571Z,17.10
2023-04-30T06:20:52.574Z,15.05
2023-04-30T06:23:20.364Z,16.50
2023-04-30T06:25:48.504Z,15.98
2023-04-30T06:28:16.309Z,16.92
2023-04-30T06:30:44.489Z,15.75
2023-04-30T06:33:12.341Z,15.70
2023-04-30T06:35:40.652Z,16.15
2023-04-30T06:38:08.425Z,15.70
2023-04-30T06:40:36.645Z,16.55
2023-04-30T06:43:04.416Z,16.08
2023-04-30T06:45:32.434Z,15.82
2023-04-30T06:48:00.622Z,15.73
2023-04-30T06:50:28.854Z,15.55
2023-04-30T06:52:56.677Z,16.38
2023-04-30T06:55:25.135Z,16.52
2023-04-30T06:57:54.358Z,15.07
2023-04-30T07:00:22.382Z,15.93
2023-04-30T07:02:52.207Z,16.23
2023-04-30T07:05:20.584Z,16.60
2023-04-30T07:07:49.230Z,17.35
2023-04-30T07:10:20.140Z,16.83
2023-04-30T07:12:47.988Z,16.70
2023-04-30T07:15:16.292Z,17.05
2023-04-30T07:17:44.343Z,16.75
2023-04-30T07:20:14.736Z,17.10
2023-04-30T07:22:46.232Z,18.27
2023-04-30T07:25:14.750Z,18.00
2023-04-30T07:27:42.550Z,17.23
2023-04-30T07:30:10.876Z,18.38
2023-04-30T07:32:41.115Z,17.67
2023-04-30T07:35:09.668Z,17.47
2023-04-30T07:37:39.111Z,18.77
2023-04-30T07:40:15.379Z,18.13
2023-04-30T07:42:47.290Z,19.38
2023-04-30T07:45:15.456Z,19.77
2023-04-30T07:47:43.375Z,19.05
2023-04-30T07:50:12.462Z,20.75
2023-04-30T07:52:43.287Z,19.58
2023-04-30T07:55:13.499Z,19.17
2023-04-30T07:57:41.500Z,19.88
2023-04-30T08:00:09.899Z,19.60
2023-04-30T08:02:40.629Z,19.75
2023-04-30T08:05:09.367Z,20.65
2023-04-30T08:07:37.530Z,19.50
2023-04-30T08:10:06.427Z,19.42
2023-04-30T08:12:37.161Z,19.65
2023-04-30T08:15:06.384Z,20.00
2023-04-30T08:17:34.849Z,19.52
2023-04-30T08:20:07.841Z,21.08
2023-04-30T08:22:35.699Z,19.08
2023-04-30T08:25:03.809Z,19.77
2023-04-30T08:27:32.575Z,19.38
2023-04-30T08:30:00.690Z,19.23
2023-04-30T08:32:29.137Z,18.33
2023-04-30T08:34:57.327Z,19.38
2023-04-30T08:37:25.095Z,18.27
2023-04-30T08:39:53.422Z,17.50
2023-04-30T08:42:25.099Z,17.52
2023-04-30T08:44:53.060Z,17.52
2023-04-30T08:47:21.590Z,16.98
2023-04-30T08:49:50.280Z,17.20
2023-04-30T08:52:19.376Z,16.85
2023-04-30T08:54:48.633Z,16.02
2023-04-30T08:57:16.499Z,16.63
2023-04-30T08:59:47.614Z,15.60
2023-04-30T09:02:15.594Z,15.10
2023-04-30T09:04:46.836Z,13.93
2023-04-30T09:07:15.835Z,14.60
2023-04-30T09:09:44.005Z,14.23
2023-04-30T09:12:19.091Z,15.27
2023-04-30T09:15:09.538Z,13.95
2023-04-30T09:17:37.440Z,15.15
2023-04-30T09:20:13.161Z,14.35
2023-04-30T09:22:42.588Z,13.85
2023-04-30T09:25:11.562Z,14.10
2023-04-30T09:27:39.296Z,12.40
2023-04-30T09:30:08.078Z,11.48
2023-04-30T09:32:36.105Z,12.15
2023-04-30T09:35:06.495Z,12.70
2023-04-30T09:37:38.377Z,12.15
2023-04-30T09:40:07.190Z,11.48
2023-04-30T09:42:35.513Z,11.25
2023-04-30T09:45:05.655Z,11.48
2023-04-30T09:47:33.545Z,11.23
2023-04-30T09:50:01.735Z,10.65
2023-04-30T09:52:29.576Z,12.20
2023-04-30T09:54:57.603Z,12.32
2023-04-30T09:57:26.974Z,11.13
2023-04-30T09:59:57.870Z,10.50
2023-04-30T10:02:26.483Z,12.00
2023-04-30T10:04:58.371Z,10.80
2023-04-30T10:07:34.871Z,10.48
2023-04-30T10:10:12.592Z,9.55
2023-04-30T10:12:56.456Z,10.45
2023-04-30T10:15:34.710Z,10.05
2023-04-30T10:18:09.132Z,9.63
2023-04-30T10:20:38.907Z,11.02
2023-04-30T10:23:07.351Z,10.93
2023-04-30T10:25:38.477Z,12.00
2023-04-30T10:28:08.429Z,11.50
2023-04-30T10:30:36.771Z,11.43
2023-04-30T10:33:26.060Z,11.48
2023-04-30T10:35:59.815Z,10.52
2023-04-30T10:38:29.811Z,11.98
2023-04-30T10:41:01.611Z,13.07
2023-04-30T10:43:35.081Z,11.00
2023-04-30T10:46:04.237Z,10.35
2023-04-30T10:48:35.592Z,10.48
2023-04-30T10:51:04.115Z,11.60
2023-04-30T10:53:32.859Z,10.48
2023-04-30T10:56:07.025Z,9.98
2023-04-30T10:58:39.634Z,8.38
2023-04-30T11:01:13.776Z,7.63
2023-04-30T11:04:02.451Z,8.13
2023-04-30T11:06:52.749Z,9.30
2023-04-30T11:09:34.820Z,7.35
2023-04-30T11:12:04.502Z,8.30
2023-04-30T11:14:34.134Z,9.77
2023-04-30T11:17:02.516Z,7.95
2023-04-30T11:19:30.323Z,8.80
2023-04-30T11:22:04.451Z,8.88
2023-04-30T11:24:59.964Z,8.75
2023-04-30T11:27:33.848Z,8.38
2023-04-30T11:30:10.274Z,7.78
2023-04-30T11:32:39.857Z,8.00
2023-04-30T11:35:08.301Z,7.03
2023-04-30T11:37:38.820Z,7.63
2023-04-30T11:40:11.472Z,7.82
2023-04-30T11:42:44.880Z,7.35
2023-04-30T11:45:20.894Z,6.82
2023-04-30T11:47:54.798Z,8.25
2023-04-30T11:50:32.760Z,7.57
2023-04-30T11:53:05.520Z,7.80
2023-04-30T11:55:33.621Z,8.15
2023-04-30T11:58:01.636Z,6.97
2023-04-30T12:00:31.494Z,6.97
2023-04-30T12:03:03.870Z,7.75
2023-04-30T12:05:32.086Z,7.78
2023-04-30T12:08:04.467Z,7.43
2023-04-30T12:10:33.162Z,7.30
2023-04-30T12:13:01.629Z,6.88
2023-04-30T12:15:29.943Z,6.90
2023-04-30T12:17:59.902Z,7.25
2023-04-30T12:20:31.184Z,6.32
2023-04-30T12:22:59.540Z,6.93
2023-04-30T12:25:29.588Z,7.03
2023-04-30T12:28:02.155Z,7.07
2023-04-30T12:30:30.513Z,6.63
2023-04-30T12:32:59.756Z,6.32
2023-04-30T12:35:31.125Z,7.10
2023-04-30T12:38:04.623Z,6.45
2023-04-30T12:40:32.805Z,7.00
2023-04-30T12:43:09.988Z,6.75
2023-04-30T12:45:54.164Z,7.68
2023-04-30T12:48:25.319Z,7.05
2023-04-30T12:51:05.368Z,6.38
2023-04-30T12:53:33.478Z,6.45
2023-04-30T12:56:17.614Z,6.95
2023-04-30T12:58:51.063Z,6.70
2023-04-30T13:01:25.392Z,6.70
2023-04-30T13:03:54.171Z,6.40
2023-04-30T13:06:23.637Z,5.85
2023-04-30T13:08:58.422Z,6.05
2023-04-30T13:11:27.295Z,6.38
2023-04-30T13:13:56.205Z,5.82
2023-04-30T13:16:27.434Z,5.20
2023-04-30T13:18:55.546Z,6.78
2023-04-30T13:21:24.795Z,6.28
2023-04-30T13:23:54.532Z,6.50
2023-04-30T13:26:23.815Z,5.97
2023-04-30T13:28:52.375Z,6.18
2023-04-30T13:31:20.646Z,5.78
2023-04-30T13:33:49.190Z,6.15
2023-04-30T13:36:17.280Z,6.38
2023-04-30T13:38:45.301Z,5.50
2023-04-30T13:41:13.626Z,5.97
2023-04-30T13:43:42.960Z,5.97
2023-04-30T13:46:11.166Z,5.63
2023-04-30T13:48:39.420Z,5.28
2023-04-30T13:51:07.522Z,5.35
2023-04-30T13:53:37.689Z,5.88
2023-04-30T13:56:06.190Z,5.97
2023-04-30T13:58:34.204Z,5.47
2023-04-30T14:01:02.912Z,5.10
2023-04-30T14:03:32.059Z,5.43
2023-04-30T14:05:59.999Z,5.55
2023-04-30T14:08:28.217Z,5.18
2023-04-30T14:10:56.450Z,5.28
2023-04-30T14:13:24.640Z,5.20
2023-04-30T14:15:52.396Z,5.43
2023-04-30T14:18:22.804Z,7.60
2023-04-30T14:22:38.633Z,4.88
2023-04-30T14:25:07.665Z,5.13
2023-04-30T14:27:35.882Z,5.75
2023-04-30T14:30:04.348Z,5.30
2023-04-30T14:32:32.132Z,5.18
2023-04-30T14:35:00.335Z,5.57
2023-04-30T14:37:28.196Z,5.65
2023-04-30T14:39:58.770Z,5.18
2023-04-30T14:42:26.932Z,6.10
2023-04-30T14:44:54.882Z,5.20
2023-04-30T14:47:22.804Z,5.72
2023-04-30T14:49:53.637Z,5.05
2023-04-30T14:52:22.063Z,4.70
2023-04-30T14:54:50.140Z,4.88
2023-04-30T14:57:18.849Z,4.50
2023-04-30T14:59:47.047Z,5.28
2023-04-30T15:02:15.068Z,5.32
2023-04-30T15:04:46.327Z,5.75
2023-04-30T15:07:14.504Z,4.75
2023-04-30T15:09:44.717Z,5.20
2023-04-30T15:12:12.775Z,4.93
2023-04-30T15:14:41.397Z,5.03
2023-04-30T15:17:09.511Z,4.90
2023-04-30T15:19:37.532Z,5.05
2023-04-30T15:22:06.831Z,5.30
2023-04-30T15:24:37.316Z,4.93
2023-04-30T15:27:05.372Z,4.93
2023-04-30T15:29:33.865Z,4.82
2023-04-30T15:32:01.620Z,4.60
2023-04-30T15:34:30.017Z,4.47
2023-04-30T15:36:58.988Z,4.85
2023-04-30T15:39:29.866Z,10.00
2023-04-30T15:41:57.718Z,4.88
2023-04-30T15:44:25.776Z,5.55
2023-04-30T15:46:53.743Z,7.50
2023-04-30T15:49:23.263Z,5.78
2023-04-30T15:51:54.107Z,4.68
2023-04-30T15:54:23.371Z,4.80
2023-04-30T15:56:51.703Z,5.30
2023-04-30T15:59:19.879Z,4.78
2023-04-30T16:01:49.961Z,5.03
2023-04-30T16:04:18.008Z,4.90
2023-04-30T16:06:46.610Z,4.85
2023-04-30T16:11:40.297Z,4.85
2023-04-30T16:14:08.480Z,5.40
2023-04-30T16:16:36.317Z,5.25
2023-04-30T16:19:04.332Z,6.15
2023-04-30T16:21:34.554Z,5.78
2023-04-30T16:24:04.733Z,4.53
2023-04-30T16:26:34.854Z,10.55
2023-04-30T16:29:04.504Z,42.83
2023-04-30T16:31:32.520Z,14.35
2023-04-30T16:34:01.123Z,9.55
2023-04-30T16:36:29.122Z,8.20
2023-04-30T16:38:57.138Z,4.85
2023-04-30T16:41:24.962Z,6.35
2023-04-30T16:43:52.897Z,4.43
2023-04-30T16:46:20.734Z,5.05
2023-04-30T16:48:49.456Z,5.25
2023-04-30T16:51:17.616Z,5.30
2023-04-30T16:53:45.761Z,4.43
2023-04-30T16:56:13.542Z,4.65
2023-04-30T16:58:43.882Z,5.40
2023-04-30T17:01:11.751Z,5.32
2023-04-30T17:03:40.065Z,4.60
2023-04-30T17:06:08.272Z,5.00
2023-04-30T17:08:37.331Z,4.43
2023-04-30T17:11:06.342Z,4.78
2023-04-30T17:13:34.581Z,4.45
2023-04-30T17:16:02.530Z,5.05
2023-04-30T17:18:30.546Z,4.20
2023-04-30T17:20:58.289Z,4.55
2023-04-30T17:23:26.308Z,4.55
2023-04-30T17:25:53.982Z,4.10
2023-04-30T17:28:22.082Z,3.80
2023-04-30T17:30:50.430Z,4.90
2023-04-30T17:33:18.499Z,4.43
2023-04-30T17:35:46.321Z,4.18
2023-04-30T17:38:14.481Z,4.38
2023-04-30T17:40:42.284Z,4.43
2023-04-30T17:43:10.698Z,4.00
2023-04-30T17:45:41.070Z,4.90
2023-04-30T17:48:09.296Z,4.82
2023-04-30T17:50:37.484Z,4.45
2023-04-30T17:53:05.715Z,4.55
2023-04-30T17:55:33.582Z,4.28
2023-04-30T17:58:03.845Z,4.15
2023-04-30T18:00:31.773Z,4.22
2023-04-30T18:02:59.951Z,3.70
2023-04-30T18:05:27.797Z,3.80
2023-04-30T18:07:55.928Z,3.33
2023-04-30T18:10:23.669Z,3.65
2023-04-30T18:12:52.906Z,3.70
2023-04-30T18:15:20.767Z,3.35
2023-04-30T18:17:48.827Z,3.40
2023-04-30T18:20:16.915Z,4.22
2023-04-30T18:22:47.412Z,5.70
2023-04-30T18:25:18.628Z,7.32
2023-04-30T18:27:46.812Z,7.85
2023-04-30T18:30:15.190Z,8.80
2023-04-30T18:32:44.243Z,8.13
2023-04-30T18:35:12.062Z,8.77
2023-04-30T18:37:40.347Z,9.32
2023-04-30T18:40:11.005Z,8.50
2023-04-30T18:42:39.126Z,9.65
2023-04-30T18:45:09.128Z,9.88
2023-04-30T18:47:37.224Z,10.23
2023-04-30T18:50:07.121Z,9.30
2023-04-30T18:52:35.434Z,11.30
2023-04-30T18:55:03.324Z,10.60
2023-04-30T18:57:34.872Z,10.53
2023-04-30T19:00:02.689Z,10.02
2023-04-30T19:02:30.840Z,9.85
2023-04-30T19:04:58.809Z,8.65
2023-04-30T19:07:26.817Z,8.30
2023-04-30T19:09:56.971Z,8.50
2023-04-30T19:14:39.893Z,8.73
2023-04-30T19:17:08.109Z,8.02
2023-04-30T19:19:36.267Z,8.55
2023-04-30T19:22:04.511Z,8.85
2023-04-30T19:24:32.177Z,8.55
2023-04-30T19:27:04.100Z,8.73
2023-04-30T19:29:32.510Z,7.93
2023-04-30T19:32:03.199Z,8.82
2023-04-30T19:34:31.461Z,9.43
2023-04-30T19:36:59.437Z,8.32
2023-04-30T19:39:36.262Z,8.45
2023-04-30T19:42:06.144Z,7.72
2023-04-30T19:44:34.481Z,8.35
2023-04-30T19:47:03.556Z,7.95
2023-04-30T19:49:34.387Z,9.20
2023-04-30T19:52:02.585Z,8.43
2023-04-30T19:54:30.408Z,8.80
2023-04-30T19:56:58.524Z,9.27
2023-04-30T19:59:27.699Z,8.82
2023-04-30T20:01:55.949Z,8.55
2023-04-30T20:04:23.767Z,8.10
2023-04-30T20:06:56.927Z,9.07
2023-04-30T20:09:25.071Z,8.50
2023-04-30T20:11:53.941Z,8.30
2023-04-30T20:14:23.924Z,7.97
2023-04-30T20:16:54.427Z,8.63
2023-04-30T20:19:22.499Z,8.35
2023-04-30T20:21:50.864Z,7.72
2023-04-30T20:24:19.188Z,8.13
2023-04-30T20:26:47.326Z,8.98
2023-04-30T20:29:18.566Z,7.93
2023-04-30T20:34:17.690Z,8.23
2023-04-30T20:36:45.978Z,9.15
2023-04-30T20:39:14.638Z,8.52
2023-04-30T20:41:48.028Z,8.77
2023-04-30T20:44:16.094Z,8.50
2023-04-30T20:46:44.120Z,8.75
2023-04-30T20:49:14.719Z,8.73
2023-04-30T20:51:42.997Z,8.50
2023-04-30T20:54:11.176Z,8.90
2023-04-30T20:56:39.293Z,8.95
2023-04-30T20:59:07.092Z,8.25
2023-04-30T21:01:35.714Z,8.90
2023-04-30T21:04:04.853Z,8.95
2023-04-30T21:06:33.646Z,8.05
2023-04-30T21:09:01.554Z,8.02
2023-04-30T21:11:29.925Z,7.70
2023-04-30T21:13:58.002Z,7.70
2023-04-30T21:16:28.260Z,7.85
2023-04-30T21:18:59.013Z,7.53
2023-04-30T21:21:30.097Z,7.43
2023-04-30T21:24:01.184Z,8.10
2023-04-30T21:26:29.973Z,7.13
2023-04-30T21:28:57.981Z,7.07
2023-04-30T21:31:27.460Z,7.72
2023-04-30T21:33:56.073Z,7.70
2023-04-30T21:36:24.278Z,7.72
2023-04-30T21:38:52.285Z,7.15
2023-04-30T21:41:24.350Z,7.93
2023-04-30T21:43:52.238Z,8.63
2023-04-30T21:46:20.611Z,8.65
2023-04-30T21:48:50.857Z,8.38
2023-04-30T21:51:18.973Z,7.68
2023-04-30T21:53:47.211Z,8.07
2023-04-30T21:56:19.189Z,9.18
2023-04-30T21:58:49.145Z,8.23
2023-04-30T22:01:18.270Z,8.52
2023-04-30T22:03:46.332Z,8.77
2023-04-30T22:06:14.937Z,9.43
2023-04-30T22:08:45.209Z,9.25
2023-04-30T22:11:13.534Z,9.35
2023-04-30T22:13:41.946Z,9.63
2023-04-30T22:16:12.329Z,10.37
2023-04-30T22:18:40.305Z,10.15
2023-04-30T22:21:08.377Z,9.85
2023-04-30T22:23:36.796Z,10.05
2023-04-30T22:26:09.806Z,9.40
2023-04-30T22:28:38.327Z,9.70
2023-04-30T22:31:06.468Z,10.00
2023-04-30T22:33:36.684Z,8.88
2023-04-30T22:36:06.374Z,9.57
2023-04-30T22:38:35.427Z,9.85
2023-04-30T22:41:04.558Z,10.32
2023-04-30T22:43:32.907Z,10.15
2023-04-30T22:46:02.309Z,9.35
2023-04-30T22:48:30.694Z,8.68
2023-04-30T22:50:59.227Z,8.80
2023-04-30T22:53:28.302Z,8.38
2023-04-30T22:56:01.659Z,8.15
2023-04-30T22:58:30.473Z,7.78
2023-04-30T23:00:59.116Z,7.90
2023-04-30T23:03:28.306Z,8.35
2023-04-30T23:05:59.836Z,7.85
2023-04-30T23:08:28.117Z,7.93
2023-04-30T23:13:26.007Z,7.85
2023-04-30T23:15:58.898Z,8.57
2023-04-30T23:18:27.037Z,8.07
2023-04-30T23:21:01.214Z,9.77
2023-04-30T23:23:30.453Z,9.00
2023-04-30T23:25:59.243Z,9.23
2023-04-30T23:28:27.158Z,9.15
2023-04-30T23:30:55.712Z,9.55
2023-04-30T23:33:25.978Z,9.50
2023-04-30T23:35:54.012Z,9.63
2023-04-30T23:38:22.049Z,10.27
2023-04-30T23:40:50.094Z,9.30
2023-04-30T23:43:17.923Z,8.73
2023-04-30T23:45:46.041Z,9.70
2023-04-30T23:48:13.908Z,10.60
2023-04-30T23:50:41.997Z,10.93
2023-04-30T23:53:09.778Z,10.70
2023-04-30T23:55:41.203Z,12.57
2023-04-30T23:58:09.295Z,11.35
